Time;durP1;ratioP1;P1;durP2;ratioP2;P2;SDS_P1;SDS_P2;PMS_P1;PMS_P2;Temp;Humidity;BMP_temperature;BMP_pressure;BME280_temperature;BME280_humidity;BME280_pressure;Samples;Min_cycle;Max_cycle;Signal;HPM_P1;HPM_P2
2022/05/15 00:01:24;;;;;;;5.77;5.03;;;;;;;22.80;44.04;95231.56;6145203;28;104229;-58
2022/05/15 00:04:27;;;;;;;6.10;5.50;;;;;;;22.75;44.02;95235.16;6158775;28;103459;-60
2022/05/15 00:07:30;;;;;;;5.33;4.93;;;;;;;22.81;44.17;95230.47;6144518;28;104180;-58
2022/05/15 00:10:33;;;;;;;5.20;4.80;;;;;;;22.93;44.16;95233.38;6148240;28;103247;-58
2022/05/15 00:13:39;;;;;;;5.33;4.90;;;;;;;23.00;43.85;95239.06;6160038;28;103610;-58
2022/05/15 00:16:42;;;;;;;5.40;4.77;;;;;;;22.95;43.86;95237.31;6159441;28;103973;-58
2022/05/15 00:19:45;;;;;;;5.90;5.40;;;;;;;22.94;44.11;95229.59;6159151;28;102973;-58
2022/05/15 00:22:49;;;;;;;7.50;5.57;;;;;;;22.97;44.08;95226.31;6145748;28;104651;-58
2022/05/15 00:25:52;;;;;;;5.90;4.87;;;;;;;22.94;44.24;95235.72;6163870;28;103558;-58
2022/05/15 00:28:57;;;;;;;5.47;4.97;;;;;;;22.94;43.81;95243.75;6155393;28;103643;-58
2022/05/15 00:32:00;;;;;;;5.17;4.87;;;;;;;22.89;44.24;95232.41;6141721;28;103039;-58
2022/05/15 00:35:03;;;;;;;5.13;4.73;;;;;;;22.86;43.81;95238.38;6143162;28;105548;-58
2022/05/15 00:38:08;;;;;;;5.60;5.10;;;;;;;22.85;43.92;95236.78;6156081;28;104315;-58
2022/05/15 00:41:12;;;;;;;5.60;5.10;;;;;;;22.78;44.33;95241.75;6150362;28;103073;-58
2022/05/15 00:44:16;;;;;;;5.47;4.93;;;;;;;22.74;43.84;95238.91;6149592;28;103239;-58
2022/05/15 00:47:20;;;;;;;7.57;5.80;;;;;;;22.66;44.51;95234.31;6146737;28;103180;-58
2022/05/15 00:50:26;;;;;;;6.30;5.43;;;;;;;22.62;44.07;95250.13;6164619;28;104146;-58
2022/05/15 00:53:30;;;;;;;5.60;5.10;;;;;;;22.76;44.13;95247.41;6161775;28;103104;-58
2022/05/15 00:56:35;;;;;;;5.00;4.50;;;;;;;22.84;43.58;95244.00;6152666;28;103255;-58
2022/05/15 00:59:46;;;;;;;5.83;5.33;;;;;;;22.85;43.50;95237.59;6163576;28;103128;-58
2022/05/15 01:02:53;;;;;;;5.10;4.80;;;;;;;22.83;43.96;95241.63;6154270;28;104098;-58
2022/05/15 01:05:57;;;;;;;5.50;5.10;;;;;;;22.73;43.74;95239.22;6159877;28;103605;-58
2022/05/15 01:09:02;;;;;;;4.90;4.50;;;;;;;22.70;44.13;95235.28;6152239;28;104433;-58
2022/05/15 01:12:07;;;;;;;5.00;4.60;;;;;;;22.59;44.38;95237.41;6164182;28;103181;-58
2022/05/15 01:15:15;;;;;;;7.13;5.30;;;;;;;22.62;44.04;95236.81;6161745;28;104149;-58
2022/05/15 01:18:21;;;;;;;5.17;4.73;;;;;;;22.70;43.49;95235.28;6136480;28;103094;-57
2022/05/15 01:21:30;;;;;;;5.20;4.80;;;;;;;22.77;43.58;95234.84;6158131;28;104105;-58
2022/05/15 01:24:33;;;;;;;5.27;4.87;;;;;;;22.69;43.98;95237.19;6139974;28;103931;-58
2022/05/15 01:27:37;;;;;;;5.83;5.20;;;;;;;22.62;43.69;95231.47;6140422;28;103329;-58
2022/05/15 01:30:48;;;;;;;5.70;5.30;;;;;;;22.64;43.53;95237.28;6138415;28;104321;-60
2022/05/15 01:33:53;;;;;;;5.40;4.60;;;;;;;22.59;43.94;95239.28;6139515;28;103295;-58
2022/05/15 01:36:59;;;;;;;5.80;5.40;;;;;;;22.65;43.91;95235.41;6142227;28;103009;-58
2022/05/15 01:40:03;;;;;;;5.50;5.00;;;;;;;22.60;43.31;95230.97;6158353;28;102940;-58
2022/05/15 01:43:07;;;;;;;5.37;5.07;;;;;;;22.67;43.53;95235.88;6148892;28;104252;-58
2022/05/15 01:46:11;;;;;;;5.17;4.77;;;;;;;22.62;43.47;95234.13;6141972;28;103236;-57
2022/05/15 01:49:15;;;;;;;5.20;4.80;;;;;;;22.62;43.75;95236.81;6153675;28;103943;-58
2022/05/15 01:52:19;;;;;;;6.63;5.00;;;;;;;22.54;43.05;95242.84;6157074;28;103523;-57
2022/05/15 01:55:23;;;;;;;5.07;4.77;;;;;;;22.53;43.57;95233.28;6154865;28;104036;-58
2022/05/15 01:58:26;;;;;;;6.50;4.90;;;;;;;22.51;43.00;95231.97;6139260;28;103865;-58
2022/05/15 02:01:29;;;;;;;4.90;4.50;;;;;;;22.49;42.95;95234.16;6138748;28;104045;-58
2022/05/15 02:04:32;;;;;;;5.07;4.67;;;;;;;22.55;42.76;95235.63;6150318;28;105585;-58
2022/05/15 02:07:37;;;;;;;4.60;4.30;;;;;;;22.45;42.81;95233.97;6161214;28;104199;-58
2022/05/15 02:10:40;;;;;;;5.00;4.60;;;;;;;22.44;43.18;95231.63;6155850;28;104141;-58
2022/05/15 02:13:43;;;;;;;5.30;4.80;;;;;;;22.44;43.07;95232.41;6144910;28;104211;-58
2022/05/15 02:16:46;;;;;;;5.67;4.40;;;;;;;22.41;42.63;95239.13;6151027;28;103142;-58
2022/05/15 02:19:50;;;;;;;5.10;4.47;;;;;;;22.49;42.46;95240.28;6159244;28;103404;-58
2022/05/15 02:22:54;;;;;;;4.33;4.00;;;;;;;22.57;42.52;95238.81;6162398;28;106173;-58
2022/05/15 02:25:57;;;;;;;5.00;4.60;;;;;;;22.49;42.56;95242.94;6157315;28;106473;-58
2022/05/15 02:29:01;;;;;;;5.07;4.67;;;;;;;22.46;42.25;95240.09;6148421;28;104164;-57
2022/05/15 02:32:05;;;;;;;8.83;4.90;;;;;;;22.45;42.60;95241.19;6160887;28;103283;-57
2022/05/15 02:35:10;;;;;;;4.73;4.43;;;;;;;22.49;42.16;95252.81;6160021;28;103966;-57
2022/05/15 02:38:15;;;;;;;4.60;4.20;;;;;;;22.41;42.39;95251.69;6149752;28;103070;-58
2022/05/15 02:41:18;;;;;;;4.87;4.13;;;;;;;22.37;42.52;95258.72;6162207;28;103254;-58
2022/05/15 02:44:21;;;;;;;4.60;4.20;;;;;;;22.46;42.08;95261.44;6161473;28;103467;-58
2022/05/15 02:47:24;;;;;;;6.90;4.30;;;;;;;22.48;42.03;95259.25;6162130;28;104623;-58
2022/05/15 02:53:50;;;;;;;4.70;3.80;;;;;;;22.39;41.66;95259.19;6161337;28;103293;-58
2022/05/15 02:56:54;;;;;;;4.07;3.87;;;;;;;22.37;42.42;95256.84;6161033;28;103303;-58
2022/05/15 02:59:57;;;;;;;4.40;4.10;;;;;;;22.47;42.33;95263.81;6139194;28;102955;-57
2022/05/15 03:03:00;;;;;;;4.13;3.83;;;;;;;22.40;41.87;95266.91;6142775;28;103006;-58
2022/05/15 03:06:06;;;;;;;5.17;3.87;;;;;;;22.37;41.96;95269.38;6156077;28;103983;-58
2022/05/15 03:09:11;;;;;;;4.57;4.27;;;;;;;22.28;42.13;95271.19;6150986;28;103044;-58
2022/05/15 03:12:14;;;;;;;7.90;4.13;;;;;;;22.44;41.96;95269.75;6151615;28;103444;-58
2022/05/15 03:15:19;;;;;;;4.73;4.30;;;;;;;22.32;42.14;95274.81;6138158;28;103186;-58
2022/05/15 03:18:22;;;;;;;5.47;4.47;;;;;;;22.42;41.90;95274.59;6156891;28;103116;-58
2022/05/15 03:21:31;;;;;;;11.27;10.27;;;;;;;22.32;42.11;95274.81;6149928;28;103453;-57
2022/05/15 03:24:36;;;;;;;8.90;8.30;;;;;;;22.39;41.93;95281.31;6151412;28;103018;-58
2022/05/15 03:27:39;;;;;;;6.43;5.90;;;;;;;22.29;42.08;95278.88;6161382;28;102967;-58
2022/05/15 03:30:45;;;;;;;5.70;5.20;;;;;;;22.20;41.96;95280.69;6161542;28;104086;-58
2022/05/15 03:33:48;;;;;;;5.73;5.23;;;;;;;22.27;42.18;95286.38;6161339;28;104005;-58
2022/05/15 03:36:53;;;;;;;6.90;5.50;;;;;;;22.28;41.92;95282.63;6150641;28;103360;-58
2022/05/15 03:39:57;;;;;;;6.80;6.20;;;;;;;22.23;42.04;95281.97;6161912;28;104468;-57
2022/05/15 03:43:01;;;;;;;6.30;5.40;;;;;;;22.22;41.37;95280.38;6137307;28;103062;-58
2022/05/15 03:46:05;;;;;;;6.00;5.07;;;;;;;22.15;41.83;95280.78;6127565;28;104027;-58
2022/05/15 03:49:08;;;;;;;5.83;5.17;;;;;;;22.15;41.87;95283.44;6150470;28;104352;-57
2022/05/15 03:52:11;;;;;;;5.20;4.80;;;;;;;22.18;41.36;95279.38;6161746;28;104650;-57
2022/05/15 03:55:16;;;;;;;4.93;4.53;;;;;;;22.35;41.31;95285.69;6151363;28;103343;-58
2022/05/15 03:58:19;;;;;;;5.23;4.83;;;;;;;22.32;41.16;95282.81;6131055;28;103144;-57
2022/05/15 04:01:22;;;;;;;5.10;4.70;;;;;;;22.42;41.27;95285.25;6143580;28;103944;-58
2022/05/15 04:04:25;;;;;;;5.70;5.03;;;;;;;22.37;41.84;95285.38;6164311;28;103038;-57
2022/05/15 04:07:29;;;;;;;5.07;4.67;;;;;;;22.40;41.42;95274.91;6159377;28;103132;-57
2022/05/15 04:10:33;;;;;;;5.97;5.47;;;;;;;22.38;41.52;95292.28;6154464;28;104150;-58
2022/05/15 04:13:36;;;;;;;5.90;5.40;;;;;;;22.42;41.64;95294.03;6164133;28;103708;-58
2022/05/15 04:16:39;;;;;;;9.20;5.07;;;;;;;22.40;41.72;95295.44;6159322;28;104222;-58
2022/05/15 04:19:42;;;;;;;5.67;4.80;;;;;;;22.43;41.71;95300.16;6155583;28;102953;-60
2022/05/15 04:22:48;;;;;;;6.37;4.97;;;;;;;22.48;41.66;95301.91;6160775;28;103005;-57
2022/05/15 04:25:53;;;;;;;5.80;5.30;;;;;;;22.47;41.74;95301.13;6163608;28;103835;-56
2022/05/15 04:28:56;;;;;;;5.23;4.77;;;;;;;22.43;41.95;95305.50;6163299;28;104053;-56
2022/05/15 04:31:59;;;;;;;5.37;4.97;;;;;;;22.41;41.51;95303.13;6154282;28;104195;-56
2022/05/15 04:35:02;;;;;;;5.60;4.90;;;;;;;22.43;41.85;95310.84;6161204;28;104461;-56
2022/05/15 04:38:08;;;;;;;5.23;4.73;;;;;;;22.38;41.31;95303.75;6163392;28;103227;-57
2022/05/15 04:41:12;;;;;;;5.80;5.30;;;;;;;22.38;41.56;95313.63;6153882;28;103957;-56
2022/05/15 04:44:16;;;;;;;5.33;4.90;;;;;;;22.41;41.78;95316.47;6152850;28;103058;-57
2022/05/15 04:47:19;;;;;;;7.60;6.23;;;;;;;22.40;41.68;95308.78;6146844;28;103208;-56
2022/05/15 04:50:23;;;;;;;6.90;6.20;;;;;;;22.38;42.35;95308.28;6162049;28;104589;-57
2022/05/15 04:53:27;;;;;;;6.83;6.20;;;;;;;22.36;42.11;95310.47;6157772;28;102955;-57
2022/05/15 04:56:31;;;;;;;5.63;5.13;;;;;;;22.32;42.27;95315.59;6146846;28;102715;-56
2022/05/15 04:59:34;;;;;;;5.27;4.77;;;;;;;22.30;42.88;95311.66;6161877;28;103180;-56
2022/05/15 05:02:37;;;;;;;11.20;10.30;;;;;;;22.40;42.22;95309.56;6159148;28;104210;-57
2022/05/15 05:05:45;;;;;;;17.90;16.30;;;;;;;22.38;42.38;95313.63;6143976;28;104140;-59
2022/05/15 05:08:49;;;;;;;13.33;11.57;;;;;;;22.35;42.99;95309.69;6161629;28;104439;-56
2022/05/15 05:11:53;;;;;;;10.20;9.30;;;;;;;22.37;43.03;95306.72;6159474;28;104131;-56
2022/05/15 05:14:58;;;;;;;9.20;8.33;;;;;;;22.36;43.14;95308.59;6159682;28;104039;-56
2022/05/15 05:18:01;;;;;;;9.80;8.87;;;;;;;22.36;43.03;95305.13;6147343;28;103329;-57
2022/05/15 05:21:04;;;;;;;7.90;7.10;;;;;;;22.37;42.94;95307.50;6161327;28;104115;-56
2022/05/15 05:24:08;;;;;;;8.10;7.30;;;;;;;22.42;43.05;95311.94;6163830;28;104295;-57
2022/05/15 05:27:13;;;;;;;9.17;7.27;;;;;;;22.48;43.36;95313.38;6161294;28;103959;-56
2022/05/15 05:30:19;;;;;;;8.17;7.33;;;;;;;22.50;43.57;95315.75;6141873;28;103369;-60
2022/05/15 05:33:22;;;;;;;8.13;6.60;;;;;;;22.59;43.09;95306.75;6162232;28;104251;-60
2022/05/15 05:36:26;;;;;;;7.40;6.70;;;;;;;22.79;43.36;95310.03;6159723;28;103107;-60
2022/05/15 05:39:30;;;;;;;7.53;6.70;;;;;;;22.89;43.28;95301.81;6153476;28;103315;-60
2022/05/15 05:42:34;;;;;;;10.17;7.40;;;;;;;23.05;43.45;95311.00;6161568;28;103427;-61
2022/05/15 05:45:38;;;;;;;8.97;7.60;;;;;;;23.13;43.38;95307.59;6160517;28;103018;-57
2022/05/15 05:48:45;;;;;;;7.70;7.10;;;;;;;23.23;43.38;95304.66;6153943;28;104162;-57
2022/05/15 05:51:49;;;;;;;7.97;7.30;;;;;;;23.30;43.01;95304.25;6146447;28;103109;-57
2022/05/15 05:54:53;;;;;;;7.63;6.93;;;;;;;23.37;43.37;95303.84;6155238;28;103372;-56
2022/05/15 05:57:58;;;;;;;7.40;6.77;;;;;;;23.43;43.08;95302.59;6160108;28;103471;-58
2022/05/15 06:01:01;;;;;;;11.17;10.17;;;;;;;23.36;43.67;95307.59;6140119;28;103381;-58
2022/05/15 06:07:27;;;;;;;9.40;8.50;;;;;;;23.52;43.67;95314.91;6156553;28;102938;-58
2022/05/15 06:10:30;;;;;;;12.17;10.97;;;;;;;23.35;44.53;95308.66;6146382;28;104290;-58
2022/05/15 06:13:35;;;;;;;13.43;11.97;;;;;;;23.17;44.03;95303.22;6140379;28;103039;-58
2022/05/15 06:16:38;;;;;;;11.20;10.20;;;;;;;23.44;44.12;95307.63;6147747;28;104069;-58
2022/05/15 06:19:41;;;;;;;11.97;10.80;;;;;;;23.59;43.20;95304.53;6151129;28;102833;-58
2022/05/15 06:22:45;;;;;;;11.43;10.27;;;;;;;23.68;43.12;95299.22;6151006;28;104191;-58
2022/05/15 06:25:48;;;;;;;11.47;10.37;;;;;;;23.73;43.43;95298.31;6148429;28;104698;-58
2022/05/15 06:28:53;;;;;;;11.10;9.97;;;;;;;23.78;43.50;95303.50;6161151;28;104390;-58
2022/05/15 06:31:56;;;;;;;10.10;9.23;;;;;;;23.87;43.18;95305.13;6156918;28;103054;-58
2022/05/15 06:34:59;;;;;;;11.20;10.27;;;;;;;23.93;43.46;95307.66;6157398;28;103218;-58
2022/05/15 06:38:02;;;;;;;14.97;13.47;;;;;;;23.93;43.61;95311.09;6150208;28;104229;-58
2022/05/15 06:41:08;;;;;;;16.10;13.37;;;;;;;23.96;45.77;95312.38;6157230;28;103040;-57
2022/05/15 06:44:12;;;;;;;12.90;11.60;;;;;;;23.92;45.14;95316.75;6160881;28;103056;-57
2022/05/15 06:47:16;;;;;;;11.13;9.60;;;;;;;23.87;44.56;95307.78;6134310;28;104345;-56
2022/05/15 06:50:19;;;;;;;12.03;9.77;;;;;;;23.96;44.84;95315.03;6133551;28;104194;-58
2022/05/15 06:53:22;;;;;;;14.20;9.90;;;;;;;24.04;44.95;95309.75;6145300;28;103523;-57
2022/05/15 06:59:47;;;;;;;11.80;10.57;;;;;;;24.11;45.32;95310.06;6138214;28;103319;-57
2022/05/15 07:02:50;;;;;;;12.47;9.87;;;;;;;24.15;45.05;95311.00;6153784;28;103092;-56
2022/05/15 07:05:54;;;;;;;13.40;10.63;;;;;;;24.22;45.61;95310.56;6142493;28;104656;-57
2022/05/15 07:08:57;;;;;;;10.63;9.60;;;;;;;24.22;45.30;95304.44;6151165;28;103370;-57
2022/05/15 07:12:00;;;;;;;13.00;11.60;;;;;;;24.28;45.46;95308.53;6145616;28;104728;-57
2022/05/15 07:15:07;;;;;;;12.60;11.40;;;;;;;24.28;45.28;95320.00;6154214;28;104196;-57
2022/05/15 07:18:10;;;;;;;15.40;11.07;;;;;;;24.37;45.36;95314.69;6142896;28;103103;-58
2022/05/15 07:21:13;;;;;;;13.60;12.27;;;;;;;24.41;45.03;95312.94;6152934;28;104266;-58
2022/05/15 07:24:17;;;;;;;15.33;11.60;;;;;;;24.41;44.68;95308.38;6146596;28;102921;-57
2022/05/15 07:27:20;;;;;;;12.70;11.47;;;;;;;24.41;44.20;95311.06;6149917;28;103211;-57
2022/05/15 07:30:24;;;;;;;13.73;10.13;;;;;;;24.41;43.85;95313.72;6147950;28;104333;-57
2022/05/15 07:33:29;;;;;;;15.30;10.47;;;;;;;24.43;43.29;95310.75;6138560;28;105378;-61
2022/05/15 07:36:32;;;;;;;12.10;11.10;;;;;;;24.46;43.67;95300.19;6146264;28;104546;-57
2022/05/15 07:39:35;;;;;;;12.83;11.73;;;;;;;24.52;43.45;95310.72;6149848;28;104029;-57
2022/05/15 07:42:38;;;;;;;12.10;11.10;;;;;;;24.49;43.09;95304.91;6149419;28;103115;-58
2022/05/15 07:45:43;;;;;;;13.97;12.57;;;;;;;24.53;43.80;95304.28;6142230;28;103399;-57
2022/05/15 07:48:46;;;;;;;13.40;12.20;;;;;;;24.60;44.93;95304.63;6149476;28;103022;-57
2022/05/15 07:51:49;;;;;;;15.27;12.77;;;;;;;24.66;46.25;95300.66;6148817;28;104185;-57
2022/05/15 07:54:52;;;;;;;13.63;11.80;;;;;;;24.68;46.39;95309.19;6147648;28;104139;-56
2022/05/15 07:57:55;;;;;;;12.37;11.27;;;;;;;24.69;46.85;95308.09;6145812;28;103198;-58
2022/05/15 08:01:04;;;;;;;11.53;10.37;;;;;;;24.68;46.10;95301.94;6154035;28;103128;-58
2022/05/15 08:04:08;;;;;;;11.00;10.00;;;;;;;24.68;46.14;95312.66;6148932;28;103179;-58
2022/05/15 08:10:34;;;;;;;10.37;9.20;;;;;;;24.65;45.66;95323.19;6140831;28;103925;-59
2022/05/15 08:13:37;;;;;;;10.20;9.20;;;;;;;24.61;45.08;95325.69;6149708;28;103244;-57
2022/05/15 08:16:41;;;;;;;9.17;8.27;;;;;;;24.65;44.50;95339.22;6147908;28;103186;-57
2022/05/15 08:26:26;;;;;;;9.23;8.43;;;;;;;24.70;44.09;95337.25;6156432;28;104238;-56
2022/05/15 08:29:30;;;;;;;10.37;9.37;;;;;;;24.68;43.26;95347.44;6143176;28;103206;-57
2022/05/15 08:32:34;;;;;;;9.83;8.90;;;;;;;24.62;42.99;95345.22;6144281;28;103675;-57
2022/05/15 08:35:38;;;;;;;10.17;8.97;;;;;;;24.66;42.72;95346.16;6161902;28;103154;-57
2022/05/15 08:38:43;;;;;;;11.40;9.90;;;;;;;24.68;43.07;95339.41;6152986;28;103466;-57
2022/05/15 08:41:49;;;;;;;9.40;8.50;;;;;;;24.78;43.00;95343.69;6143108;28;103938;-56
2022/05/15 08:45:03;;;;;;;8.60;7.60;;;;;;;24.77;42.66;95339.44;6150404;28;104013;-58
2022/05/15 08:48:12;;;;;;;7.37;6.40;;;;;;;24.74;43.02;95335.50;6156798;28;104009;-57
2022/05/15 08:51:15;;;;;;;9.57;7.80;;;;;;;24.76;43.28;95337.84;6152395;28;102832;-58
2022/05/15 08:54:18;;;;;;;10.13;8.60;;;;;;;24.83;43.10;95335.47;6139838;28;103193;-57
2022/05/15 08:57:32;;;;;;;9.13;8.33;;;;;;;24.81;43.24;95337.69;6154790;28;104272;-57
2022/05/15 09:00:39;;;;;;;8.27;7.67;;;;;;;24.81;42.96;95337.69;6156574;28;103937;-57
2022/05/15 09:03:43;;;;;;;8.53;7.80;;;;;;;24.89;42.84;95342.28;6155879;28;103467;-56
2022/05/15 09:06:58;;;;;;;11.57;8.57;;;;;;;24.91;43.02;95342.72;6150897;28;103738;-57
2022/05/15 09:10:13;;;;;;;7.90;7.30;;;;;;;24.94;42.80;95338.63;6149899;28;104322;-56
2022/05/15 09:13:28;;;;;;;8.50;7.70;;;;;;;24.96;42.53;95334.53;6164255;28;102917;-56
2022/05/15 09:16:31;;;;;;;8.57;7.77;;;;;;;24.97;42.80;95329.97;6143496;28;104103;-58
2022/05/15 09:19:37;;;;;;;8.30;7.47;;;;;;;25.00;42.87;95335.47;6153151;28;104019;-57
2022/05/15 09:22:44;;;;;;;8.60;7.70;;;;;;;25.00;42.59;95337.34;6155994;28;104505;-58
2022/05/15 09:25:54;;;;;;;9.63;8.17;;;;;;;25.04;41.62;95332.97;6152437;28;103005;-57
2022/05/15 09:29:01;;;;;;;9.33;8.50;;;;;;;25.04;41.33;95323.03;6143982;28;103071;-57
2022/05/15 09:32:06;;;;;;;9.50;8.60;;;;;;;25.06;41.26;95322.72;6147614;28;103175;-57
2022/05/15 09:35:31;;;;;;;10.10;9.17;;;;;;;25.11;41.16;95319.06;6152549;28;103733;-57
2022/05/15 09:38:34;;;;;;;8.50;7.80;;;;;;;25.09;41.93;95309.47;6141722;28;104190;-57
2022/05/15 09:44:59;;;;;;;9.90;9.00;;;;;;;25.15;41.61;95311.97;6144430;28;102961;-57
2022/05/15 09:48:06;;;;;;;8.10;7.50;;;;;;;25.14;41.95;95318.44;6147594;28;103477;-59
2022/05/15 09:51:27;;;;;;;8.97;7.90;;;;;;;25.16;41.79;95308.19;6142033;28;103779;-57
2022/05/15 09:54:41;;;;;;;9.00;8.10;;;;;;;25.08;41.96;95315.94;6148818;28;104262;-57
2022/05/15 09:57:55;;;;;;;9.27;7.20;;;;;;;24.91;40.95;95309.81;6143354;28;104134;-59
2022/05/15 10:01:20;;;;;;;10.77;7.80;;;;;;;24.83;40.20;95302.56;6138803;28;103583;-59
2022/05/15 10:04:26;;;;;;;10.67;9.13;;;;;;;24.79;39.61;95297.06;6146001;28;104409;-55
2022/05/15 10:07:34;;;;;;;18.37;11.07;;;;;;;24.84;39.16;95304.16;6134342;28;103178;-55
2022/05/15 10:10:43;;;;;;;14.40;12.90;;;;;;;24.87;39.26;95298.97;6145000;28;103040;-56
2022/05/15 10:13:52;;;;;;;18.60;15.83;;;;;;;24.88;39.32;95308.56;6148484;28;103246;-56
2022/05/15 10:16:57;;;;;;;18.97;17.00;;;;;;;24.88;39.30;95303.22;6158282;28;103069;-55
2022/05/15 10:20:05;;;;;;;20.80;16.30;;;;;;;24.85;39.14;95298.47;6153232;28;103163;-54
2022/05/15 10:23:14;;;;;;;23.47;17.47;;;;;;;24.84;39.31;95299.56;6157740;28;103976;-56
2022/05/15 10:26:22;;;;;;;21.97;17.60;;;;;;;24.83;39.49;95302.56;6138262;28;104224;-56
2022/05/15 10:29:36;;;;;;;23.20;17.10;;;;;;;24.81;39.18;95292.19;6153779;28;104225;-56
2022/05/15 10:32:43;;;;;;;19.67;16.77;;;;;;;24.77;39.21;95291.25;6155668;28;103195;-55
2022/05/15 10:35:52;;;;;;;20.30;15.50;;;;;;;24.76;39.46;95300.38;6153285;28;103060;-56
2022/05/15 10:39:05;;;;;;;19.20;15.93;;;;;;;24.73;39.60;95303.69;6158380;28;103607;-56
2022/05/15 10:42:21;;;;;;;17.80;15.93;;;;;;;24.73;39.38;95298.34;6154972;28;103331;-55
2022/05/15 10:45:33;;;;;;;16.10;13.87;;;;;;;24.71;39.69;95300.56;6160344;28;104054;-56
2022/05/15 10:48:52;;;;;;;14.93;12.77;;;;;;;24.68;40.06;95285.88;6130557;28;104288;-56
2022/05/15 10:52:03;;;;;;;17.23;12.23;;;;;;;24.68;39.96;95285.09;6149642;28;103274;-55
2022/05/15 10:58:57;;;;;;;13.90;12.47;;;;;;;24.66;40.38;95287.28;6122064;28;104079;-56
2022/05/15 11:02:10;;;;;;;12.97;11.13;;;;;;;24.64;40.49;95289.50;6145787;28;103180;-57
2022/05/15 11:05:21;;;;;;;12.80;10.17;;;;;;;24.63;40.35;95285.25;6142199;28;103010;-55
2022/05/15 11:08:35;;;;;;;13.33;10.97;;;;;;;24.63;40.59;95279.88;6145998;28;103229;-57
2022/05/15 11:11:51;;;;;;;10.93;9.70;;;;;;;24.61;40.67;95279.44;6144260;28;104189;-56
2022/05/15 11:15:08;;;;;;;10.00;9.00;;;;;;;24.62;40.45;95283.66;6147612;28;103050;-56
2022/05/15 11:18:24;;;;;;;9.37;8.47;;;;;;;24.59;40.54;95281.63;6142444;28;103056;-57
2022/05/15 11:21:31;;;;;;;10.83;8.30;;;;;;;24.54;39.54;95276.44;6137531;28;103183;-60
2022/05/15 11:24:45;;;;;;;7.00;5.70;;;;;;;24.51;38.53;95272.50;6140575;28;103299;-57
2022/05/15 11:27:51;;;;;;;6.07;5.47;;;;;;;24.53;38.22;95264.97;6150955;28;103042;-56
2022/05/15 11:31:01;;;;;;;8.23;5.80;;;;;;;24.61;38.63;95268.72;6148317;28;103921;-56
2022/05/15 11:34:06;;;;;;;8.70;5.40;;;;;;;24.65;38.78;95258.94;6125640;28;103163;-57
2022/05/15 11:37:41;;;;;;;6.97;5.03;;;;;;;24.64;38.87;95260.84;6148421;28;104174;-56
2022/05/15 11:40:47;;;;;;;5.83;5.10;;;;;;;24.64;39.37;95257.38;6150520;28;103316;-55
2022/05/15 11:44:03;;;;;;;5.37;4.90;;;;;;;24.59;39.40;95260.22;6145930;28;103251;-56
2022/05/15 11:47:39;;;;;;;6.93;5.10;;;;;;;24.61;39.26;95252.66;6159887;28;102977;-56
2022/05/15 11:50:54;;;;;;;5.60;5.10;;;;;;;24.60;39.55;95251.88;6145599;28;102737;-57
2022/05/15 11:54:01;;;;;;;5.20;4.80;;;;;;;24.66;39.91;95244.47;6167134;28;103370;-57
2022/05/15 11:57:08;;;;;;;4.90;4.00;;;;;;;24.61;39.66;95242.75;6135630;28;103196;-57
2022/05/15 12:00:23;;;;;;;6.00;4.50;;;;;;;24.61;39.77;95237.41;6166237;28;103341;-57
2022/05/15 12:03:44;;;;;;;4.80;4.40;;;;;;;24.64;39.83;95241.31;6161150;28;103473;-56
2022/05/15 12:06:50;;;;;;;5.83;4.30;;;;;;;24.64;39.99;95233.28;6155733;28;104116;-56
2022/05/15 12:09:53;;;;;;;8.43;4.10;;;;;;;24.60;40.06;95235.03;6158388;28;104165;-55
2022/05/15 12:13:09;;;;;;;5.13;4.63;;;;;;;24.62;39.52;95235.50;6161204;28;103574;-56
2022/05/15 12:16:21;;;;;;;5.07;4.67;;;;;;;24.60;39.58;95235.03;6158322;28;104061;-56
2022/05/15 12:19:27;;;;;;;4.53;4.13;;;;;;;24.59;39.21;95236.94;6153851;28;102964;-56
2022/05/15 12:22:37;;;;;;;4.50;4.20;;;;;;;24.57;39.50;95246.38;6140819;28;103161;-56
2022/05/15 12:25:52;;;;;;;4.93;4.30;;;;;;;24.57;39.76;95236.47;6142308;28;104338;-56
2022/05/15 12:29:04;;;;;;;4.03;3.73;;;;;;;24.58;39.71;95240.72;6155440;28;103204;-56
2022/05/15 12:32:13;;;;;;;4.17;3.83;;;;;;;24.57;39.58;95235.69;6146845;28;104028;-57
2022/05/15 12:35:23;;;;;;;4.27;3.87;;;;;;;24.57;39.78;95227.66;6140675;28;103205;-56
2022/05/15 12:38:27;;;;;;;5.37;4.23;;;;;;;24.60;40.19;95227.78;6140634;28;104089;-57
2022/05/15 12:41:36;;;;;;;4.70;4.30;;;;;;;24.58;39.60;95230.00;6153807;28;104048;-57
2022/05/15 12:44:40;;;;;;;4.03;3.73;;;;;;;24.57;39.95;95219.63;6162317;28;104189;-57
2022/05/15 12:47:44;;;;;;;4.17;3.73;;;;;;;24.57;40.31;95223.09;6165064;28;104294;-57
2022/05/15 12:50:53;;;;;;;6.17;3.90;;;;;;;24.59;40.08;95214.75;6163618;28;103047;-57
2022/05/15 12:53:57;;;;;;;4.90;4.37;;;;;;;24.59;39.75;95214.75;6131181;28;103922;-57
2022/05/15 12:57:03;;;;;;;4.60;4.20;;;;;;;24.60;40.13;95213.63;6144923;28;104108;-57
2022/05/15 13:00:12;;;;;;;5.17;4.70;;;;;;;24.61;40.14;95204.50;6139881;28;103702;-58
2022/05/15 13:03:20;;;;;;;4.67;4.20;;;;;;;24.61;40.12;95199.16;6153785;28;103983;-56
2022/05/15 13:06:31;;;;;;;4.30;4.00;;;;;;;24.62;40.41;95192.69;6158211;28;102963;-57
2022/05/15 13:09:34;;;;;;;4.93;4.13;;;;;;;24.60;40.09;95197.56;6163797;28;104389;-56
2022/05/15 13:12:49;;;;;;;4.77;4.37;;;;;;;24.59;40.38;95193.34;6164240;28;103717;-56
2022/05/15 13:15:54;;;;;;;4.07;3.80;;;;;;;24.59;40.44;95194.13;6142989;28;103266;-56
2022/05/15 13:19:00;;;;;;;5.30;4.63;;;;;;;24.62;39.51;95200.72;6160609;28;104169;-56
2022/05/15 13:22:04;;;;;;;4.47;4.10;;;;;;;24.60;39.87;95200.25;6150790;28;103393;-59
2022/05/15 13:25:13;;;;;;;6.03;4.10;;;;;;;24.56;40.00;95197.44;6165246;28;104020;-60
2022/05/15 13:28:16;;;;;;;4.63;4.10;;;;;;;24.56;39.79;95199.31;6148453;28;103933;-60
2022/05/15 13:31:19;;;;;;;5.33;4.77;;;;;;;24.56;39.35;95193.97;6160897;28;103706;-59
2022/05/15 13:34:26;;;;;;;5.10;4.70;;;;;;;24.54;39.31;95193.50;6152163;28;103095;-59
2022/05/15 13:37:34;;;;;;;4.80;4.20;;;;;;;24.54;39.18;95193.50;6154865;28;104216;-59
2022/05/15 13:44:04;;;;;;;4.00;3.70;;;;;;;24.48;38.92;95182.16;6138179;28;105268;-58
2022/05/15 13:47:09;;;;;;;4.87;4.37;;;;;;;24.46;38.38;95187.84;6143074;28;104377;-55
2022/05/15 13:50:34;;;;;;;4.67;4.27;;;;;;;24.52;38.37;95182.31;6151744;28;103983;-56
2022/05/15 13:53:41;;;;;;;5.73;5.27;;;;;;;24.52;38.69;95179.63;6159276;28;103176;-56
2022/05/15 13:56:47;;;;;;;6.50;5.87;;;;;;;24.52;38.91;95174.28;6159132;28;105417;-59
2022/05/15 14:00:06;;;;;;;5.60;5.10;;;;;;;24.51;38.78;95178.84;6166005;28;102736;-59
2022/05/15 14:03:11;;;;;;;6.60;5.97;;;;;;;24.52;38.87;95168.94;6166611;28;103281;-59
2022/05/15 14:06:20;;;;;;;5.60;5.17;;;;;;;24.54;39.15;95166.75;6154693;28;102956;-59
2022/05/15 14:09:26;;;;;;;8.27;5.40;;;;;;;24.52;38.90;95159.00;6162671;28;102782;-60
2022/05/15 14:12:42;;;;;;;6.70;6.20;;;;;;;24.54;38.87;95162.19;6158496;28;104276;-59
2022/05/15 14:15:49;;;;;;;7.67;6.97;;;;;;;24.55;38.43;95169.09;6156652;28;103260;-59
2022/05/15 14:18:54;;;;;;;7.77;7.17;;;;;;;24.56;37.98;95165.31;6170200;28;103151;-59
2022/05/15 14:22:00;;;;;;;8.17;7.47;;;;;;;24.58;38.17;95162.31;6169217;28;103355;-59
2022/05/15 14:25:05;;;;;;;8.80;8.00;;;;;;;24.69;38.06;95150.19;6152067;28;104053;-58
2022/05/15 14:28:09;;;;;;;7.50;6.90;;;;;;;24.72;37.98;95146.91;6147969;28;103298;-58
2022/05/15 14:31:14;;;;;;;8.97;8.17;;;;;;;24.66;37.44;95151.59;6166186;28;103688;-59
2022/05/15 14:34:17;;;;;;;7.60;6.90;;;;;;;24.64;37.44;95147.66;6159871;28;103318;-60
2022/05/15 14:37:22;;;;;;;9.53;7.40;;;;;;;24.61;37.42;95143.75;6163447;28;103091;-57
2022/05/15 14:40:26;;;;;;;8.37;7.53;;;;;;;24.61;37.62;95146.41;6155827;28;103966;-59
2022/05/15 14:43:30;;;;;;;10.30;9.47;;;;;;;24.59;37.32;95153.19;6165155;28;103481;-59
2022/05/15 14:46:35;;;;;;;12.87;10.93;;;;;;;24.59;37.57;95150.53;6155072;28;103940;-60
2022/05/15 14:49:40;;;;;;;10.87;10.17;;;;;;;24.59;37.51;95150.53;6161839;28;105294;-60
2022/05/15 14:52:49;;;;;;;12.00;11.10;;;;;;;24.58;37.12;95147.06;6167335;28;103055;-59